Time;durP1;ratioP1;P1;durP2;ratioP2;P2;SDS_P1;SDS_P2;PMS_P1;PMS_P2;Temp;Humidity;BMP_temperature;BMP_pressure;BME280_temperature;BME280_humidity;BME280_pressure;Samples;Min_cycle;Max_cycle;Signal;HPM_P1;HPM_P2
2022/06/24 00:00:13;;;;;;;4.53;1.75;;;17.50;99.90;;;;;;5011678;28;20159;-49
2022/06/24 00:02:39;;;;;;;4.97;2.15;;;19.70;99.90;;;;;;5011707;28;20065;-50
2022/06/24 00:05:11;;;;;;;8.02;2.05;;;19.50;99.90;;;;;;5011938;28;20042;-52
2022/06/24 00:07:47;;;;;;;5.82;2.50;;;19.40;99.90;;;;;;5010645;28;20088;-50
2022/06/24 00:10:21;;;;;;;5.65;2.42;;;19.40;99.90;;;;;;5012121;28;20546;-51
2022/06/24 00:12:50;;;;;;;6.85;2.30;;;20.20;99.90;;;;;;5012325;28;20283;-52
2022/06/24 00:15:23;;;;;;;4.55;2.30;;;19.40;99.90;;;;;;5011801;28;20096;-52
2022/06/24 00:17:52;;;;;;;5.43;2.17;;;21.30;99.90;;;;;;5011601;28;20045;-49
2022/06/24 00:20:19;;;;;;;5.38;2.00;;;19.30;99.90;;;;;;5011297;28;20056;-48
2022/06/24 00:22:50;;;;;;;7.47;2.47;;;19.10;99.90;;;;;;5012461;28;20037;-52
2022/06/24 00:25:23;;;;;;;4.90;2.20;;;19.00;99.90;;;;;;5012049;28;20049;-49
2022/06/24 00:27:58;;;;;;;5.07;2.20;;;18.80;99.90;;;;;;5062031;28;20134;-53
2022/06/24 00:30:26;;;;;;;5.35;2.40;;;18.90;99.90;;;;;;5075185;28;20512;-49
2022/06/24 00:33:06;;;;;;;7.82;2.78;;;19.60;99.90;;;;;;5074427;28;20136;-52
2022/06/24 00:35:37;;;;;;;4.85;2.30;;;18.70;99.90;;;;;;5075812;28;20044;-49
2022/06/24 00:38:36;;;;;;;5.18;2.58;;;19.90;99.90;;;;;;5076383;28;20583;-48
2022/06/24 00:41:08;;;;;;;5.75;2.40;;;18.70;99.90;;;;;;5075523;28;20032;-50
2022/06/24 00:43:40;;;;;;;4.85;2.30;;;18.70;99.90;;;;;;5076651;28;20115;-49
2022/06/24 00:46:29;;;;;;;6.13;2.50;;;18.50;99.90;;;;;;5074755;28;20060;-49
2022/06/24 00:48:57;;;;;;;6.20;2.50;;;19.30;99.90;;;;;;5075037;28;20036;-50
2022/06/24 00:51:32;;;;;;;5.43;2.15;;;18.20;99.90;;;;;;5073600;28;20444;-52
2022/06/24 00:54:06;;;;;;;7.00;2.70;;;18.30;99.90;;;;;;5074322;28;20524;-49
2022/06/24 00:56:32;;;;;;;4.70;2.78;;;18.20;99.90;;;;;;5074260;28;20059;-48
2022/06/24 00:59:04;;;;;;;4.57;2.08;;;18.00;99.90;;;;;;5073170;28;20132;-48
2022/06/24 01:01:31;;;;;;;;;;;17.80;99.90;;;;;;5074835;28;20040;-51
2022/06/24 01:03:58;;;;;;;6.47;2.47;;;17.80;99.90;;;;;;5073179;28;19924;-51
2022/06/24 01:06:26;;;;;;;4.78;2.42;;;17.70;99.90;;;;;;5074021;28;20055;-48
2022/06/24 01:08:51;;;;;;;8.57;2.55;;;17.50;99.90;;;;;;5074662;28;20047;-50
2022/06/24 01:11:33;;;;;;;3.70;2.38;;;18.10;99.90;;;;;;5070030;28;20036;-51
2022/06/24 01:13:59;;;;;;;7.68;3.08;;;17.40;99.90;;;;;;5074603;28;20040;-52
2022/06/24 01:16:26;;;;;;;5.07;2.50;;;17.50;99.90;;;;;;5073975;28;20063;-49
2022/06/24 01:18:59;;;;;;;4.53;2.40;;;17.50;99.90;;;;;;5075086;28;20055;-49
2022/06/24 01:21:36;;;;;;;6.70;2.60;;;19.50;99.90;;;;;;5072388;28;20044;-49
2022/06/24 01:24:15;;;;;;;6.07;2.88;;;17.30;99.90;;;;;;5073256;28;20058;-50
2022/06/24 01:26:44;;;;;;;4.90;2.15;;;17.30;99.90;;;;;;5073394;28;20064;-48
2022/06/24 01:29:10;;;;;;;6.70;2.75;;;17.20;99.90;;;;;;5073929;28;20114;-52
2022/06/24 01:31:38;;;;;;;5.93;2.40;;;17.40;99.90;;;;;;5073258;28;20036;-49
2022/06/24 01:34:09;;;;;;;5.55;2.50;;;17.30;99.90;;;;;;5072857;28;20439;-48
2022/06/24 01:36:35;;;;;;;6.43;2.13;;;19.60;99.90;;;;;;5073399;28;20485;-49
2022/06/24 01:39:03;;;;;;;7.07;2.50;;;18.60;99.90;;;;;;5073815;28;20039;-50
2022/06/24 01:41:28;;;;;;;5.05;2.25;;;17.90;99.90;;;;;;5074203;28;20036;-49
2022/06/24 01:43:54;;;;;;;5.35;2.38;;;18.00;99.90;;;;;;5071320;28;20051;-51
2022/06/24 01:46:20;;;;;;;5.00;2.45;;;18.70;99.90;;;;;;5074023;28;20058;-49
2022/06/24 01:48:45;;;;;;;6.30;2.35;;;18.80;99.90;;;;;;5074436;28;20318;-49
2022/06/24 01:51:13;;;;;;;5.50;2.08;;;18.30;99.90;;;;;;5074635;28;20040;-49
2022/06/24 01:53:39;;;;;;;6.50;2.13;;;20.50;99.90;;;;;;5074367;28;20032;-50
2022/06/24 01:56:07;;;;;;;6.63;2.15;;;18.50;99.90;;;;;;5074208;28;20047;-51
2022/06/24 01:58:32;;;;;;;5.28;2.13;;;18.50;99.90;;;;;;5071649;28;20048;-47
2022/06/24 02:00:58;;;;;;;5.05;2.28;;;18.60;99.90;;;;;;5073780;28;20047;-49
2022/06/24 02:03:24;;;;;;;4.13;2.13;;;20.40;99.90;;;;;;5075020;28;20093;-49
2022/06/24 02:05:51;;;;;;;5.93;2.25;;;20.70;99.90;;;;;;5074562;28;20092;-47
2022/06/24 02:08:17;;;;;;;3.58;1.90;;;21.00;99.90;;;;;;5072699;28;20442;-52
2022/06/24 02:13:27;;;;;;;5.50;2.15;;;18.70;99.90;;;;;;5074479;28;20109;-49
2022/06/24 02:16:00;;;;;;;6.82;1.88;;;19.00;99.90;;;;;;5073500;28;20046;-52
2022/06/24 02:18:26;;;;;;;6.97;1.90;;;19.00;99.90;;;;;;5073240;28;20036;-49
2022/06/24 02:20:53;;;;;;;4.82;2.05;;;19.20;99.90;;;;;;5072857;28;20553;-48
2022/06/24 02:23:21;;;;;;;5.18;2.00;;;19.50;99.90;;;;;;5072375;28;20380;-48
2022/06/24 02:25:48;;;;;;;4.00;1.90;;;19.00;99.90;;;;;;5073641;28;20071;-49
2022/06/24 02:28:14;;;;;;;3.65;1.98;;;19.00;99.90;;;;;;5073595;28;20040;-49
2022/06/24 02:30:42;;;;;;;6.93;2.25;;;20.80;99.90;;;;;;5072447;28;20036;-47
2022/06/24 02:33:08;;;;;;;4.88;2.20;;;19.00;99.90;;;;;;5072887;28;20326;-52
2022/06/24 02:35:35;;;;;;;4.13;2.15;;;18.90;99.90;;;;;;5073257;28;20036;-51
2022/06/24 02:38:01;;;;;;;5.55;2.30;;;19.90;99.90;;;;;;5072381;28;20032;-49
2022/06/24 02:40:45;;;;;;;4.50;2.50;;;21.00;99.90;;;;;;5074014;28;21083;-48
2022/06/24 02:43:29;;;;;;;4.30;2.20;;;19.10;99.90;;;;;;5072780;28;20385;-49
2022/06/24 02:46:01;;;;;;;5.53;2.10;;;19.10;99.90;;;;;;5071921;28;20095;-49
2022/06/24 02:48:27;;;;;;;6.55;1.88;;;19.00;99.90;;;;;;5072797;28;20040;-48
2022/06/24 02:50:58;;;;;;;5.88;2.10;;;19.00;99.90;;;;;;5072704;28;20075;-48
2022/06/24 02:53:25;;;;;;;6.70;2.27;;;19.30;99.90;;;;;;5072073;28;20036;-52
2022/06/24 02:55:53;;;;;;;6.00;2.03;;;19.00;99.90;;;;;;5072787;28;21157;-51
2022/06/24 02:58:20;;;;;;;5.68;2.20;;;19.00;99.90;;;;;;5072371;28;20436;-50
2022/06/24 03:00:46;;;;;;;5.88;2.63;;;17.00;99.90;;;;;;5073186;28;20040;-49
2022/06/24 03:03:14;;;;;;;6.55;2.05;;;18.90;99.90;;;;;;5073073;28;20040;-47
2022/06/24 03:05:40;;;;;;;7.10;2.38;;;20.60;99.90;;;;;;5074193;28;20071;-49
2022/06/24 03:08:07;;;;;;;5.63;2.38;;;18.90;99.90;;;;;;5074074;28;20801;-49
2022/06/24 03:10:33;;;;;;;7.10;2.45;;;20.00;99.90;;;;;;5073063;28;20496;-48
2022/06/24 03:13:04;;;;;;;4.13;2.22;;;18.80;99.90;;;;;;5072916;28;20550;-48
2022/06/24 03:15:30;;;;;;;5.72;2.22;;;18.60;99.90;;;;;;5074586;28;20048;-49
2022/06/24 03:17:56;;;;;;;4.40;2.28;;;19.20;99.90;;;;;;5073185;28;20028;-49
2022/06/24 03:20:24;;;;;;;6.22;2.35;;;18.70;99.90;;;;;;5073855;28;20044;-52
2022/06/24 03:22:51;;;;;;;5.57;2.60;;;18.70;99.90;;;;;;5073298;28;20048;-50
2022/06/24 03:25:17;;;;;;;5.13;2.45;;;19.30;99.90;;;;;;5072371;28;20307;-52
2022/06/24 03:27:42;;;;;;;5.68;2.22;;;18.80;99.90;;;;;;5070948;28;20050;-48
2022/06/24 03:30:11;;;;;;;4.70;2.40;;;18.70;99.90;;;;;;5072562;28;20083;-53
2022/06/24 03:32:36;;;;;;;6.57;2.65;;;18.90;99.90;;;;;;5071979;28;20131;-50
2022/06/24 03:35:02;;;;;;;8.07;2.90;;;19.00;99.90;;;;;;5073956;28;20210;-49
2022/06/24 03:37:29;;;;;;;7.55;2.50;;;19.10;99.90;;;;;;5073798;28;20051;-51
2022/06/24 03:39:55;;;;;;;7.75;2.80;;;19.10;99.90;;;;;;5075332;28;20586;-50
2022/06/24 03:42:20;;;;;;;5.75;2.58;;;19.20;99.90;;;;;;5075113;28;20040;-48
2022/06/24 03:44:46;;;;;;;6.90;2.55;;;19.20;99.90;;;;;;5075275;28;20090;-52
2022/06/24 03:47:12;;;;;;;10.70;3.33;;;19.10;99.90;;;;;;5073817;28;20058;-50
2022/06/24 03:49:38;;;;;;;7.75;2.60;;;19.30;99.90;;;;;;5074374;28;20496;-50
2022/06/24 03:52:04;;;;;;;4.78;2.53;;;19.40;99.90;;;;;;5074153;28;20051;-50
2022/06/24 03:54:30;;;;;;;8.45;2.70;;;19.20;99.90;;;;;;5073877;28;20058;-48
2022/06/24 03:56:56;;;;;;;7.60;2.67;;;19.40;99.90;;;;;;5073992;28;20039;-48
2022/06/24 03:59:21;;;;;;;6.50;2.90;;;19.10;99.90;;;;;;5073291;28;20126;-50
2022/06/24 04:01:47;;;;;;;5.97;2.65;;;21.50;99.90;;;;;;5073998;28;20551;-49
2022/06/24 04:04:13;;;;;;;6.80;2.80;;;19.30;99.90;;;;;;5074040;28;20404;-51
2022/06/24 04:06:39;;;;;;;13.13;3.55;;;20.40;99.90;;;;;;5073277;28;20512;-51
2022/06/24 04:09:04;;;;;;;8.15;2.60;;;19.40;99.90;;;;;;5075325;28;20044;-51
2022/06/24 04:11:32;;;;;;;5.47;2.65;;;19.50;99.90;;;;;;5075170;28;20078;-50
2022/06/24 04:14:01;;;;;;;7.65;3.00;;;19.60;99.90;;;;;;5075011;28;20479;-52
2022/06/24 04:16:27;;;;;;;9.95;3.10;;;19.50;99.90;;;;;;5076483;28;20498;-52
2022/06/24 04:18:55;;;;;;;5.40;2.75;;;19.60;99.90;;;;;;5076657;28;20426;-49
2022/06/24 04:21:21;;;;;;;9.35;3.47;;;19.80;99.90;;;;;;5076200;28;20188;-54
2022/06/24 04:23:49;;;;;;;5.80;2.85;;;21.60;99.90;;;;;;5076617;28;20073;-49
2022/06/24 04:26:17;;;;;;;9.60;3.78;;;19.90;99.90;;;;;;5076029;28;20428;-48
2022/06/24 04:28:45;;;;;;;7.90;3.30;;;19.90;99.90;;;;;;5075555;28;20044;-49
2022/06/24 04:31:12;;;;;;;8.23;3.50;;;20.20;99.90;;;;;;5074998;28;20055;-53
2022/06/24 04:33:38;;;;;;;6.97;3.00;;;21.20;99.90;;;;;;5073762;28;20059;-50
2022/06/24 04:36:14;;;;;;;7.28;3.20;;;18.10;99.90;;;;;;5073790;28;20408;-50
2022/06/24 04:38:41;;;;;;;7.65;3.30;;;19.90;99.90;;;;;;5075053;28;20589;-49
2022/06/24 04:41:25;;;;;;;11.55;3.35;;;22.00;99.90;;;;;;5074429;28;20051;-51
2022/06/24 04:43:52;;;;;;;7.38;3.28;;;20.10;99.90;;;;;;5072641;28;20146;-52
2022/06/24 04:46:18;;;;;;;7.55;2.88;;;20.00;99.90;;;;;;5072880;28;20048;-54
2022/06/24 04:48:44;;;;;;;7.20;3.42;;;20.20;99.90;;;;;;5071995;28;20052;-52
2022/06/24 04:51:12;;;;;;;6.38;3.30;;;20.10;99.90;;;;;;5074310;28;20044;-51
2022/06/24 04:53:38;;;;;;;7.95;3.70;;;19.90;99.90;;;;;;5073521;28;20040;-48
2022/06/24 04:56:04;;;;;;;5.70;3.30;;;19.80;99.90;;;;;;5074265;28;20044;-48
2022/06/24 04:58:29;;;;;;;7.68;3.25;;;19.90;99.90;;;;;;5073011;28;20401;-51
2022/06/24 05:00:55;;;;;;;6.55;4.10;;;20.50;99.90;;;;;;5074756;28;20040;-48
2022/06/24 05:03:21;;;;;;;7.90;5.80;;;19.80;99.90;;;;;;5074182;28;20063;-53
2022/06/24 05:05:48;;;;;;;10.45;6.30;;;19.80;99.90;;;;;;5074158;28;20072;-53
2022/06/24 05:08:14;;;;;;;11.18;6.85;;;20.10;99.90;;;;;;5073554;28;20285;-52
2022/06/24 05:10:41;;;;;;;17.73;8.57;;;20.90;99.90;;;;;;5074989;28;20474;-51
2022/06/24 05:13:08;;;;;;;14.70;9.13;;;20.20;99.90;;;;;;5073804;28;20139;-49
2022/06/24 05:15:34;;;;;;;14.63;8.82;;;20.00;99.90;;;;;;5073993;28;20047;-50
2022/06/24 05:18:00;;;;;;;15.70;8.85;;;20.30;99.90;;;;;;5073169;28;20039;-52
2022/06/24 05:20:25;;;;;;;20.48;9.07;;;20.60;20.20;;;;;;5073175;28;20043;-53
2022/06/24 05:22:51;;;;;;;19.77;8.30;;;20.40;28.50;;;;;;5074571;28;20855;-50
2022/06/24 05:25:17;;;;;;;16.08;8.00;;;20.90;49.70;;;;;;5073020;28;20779;-54
2022/06/24 05:27:42;;;;;;;19.83;7.03;;;20.50;65.40;;;;;;5073120;28;20088;-52
2022/06/24 05:30:10;;;;;;;19.63;6.88;;;22.80;76.70;;;;;;5074902;28;20079;-52
2022/06/24 05:32:35;;;;;;;14.30;5.22;;;20.70;79.20;;;;;;5074054;28;20044;-54
2022/06/24 05:35:01;;;;;;;13.10;5.05;;;21.10;80.20;;;;;;5074802;28;20044;-54
2022/06/24 05:37:27;;;;;;;14.80;4.15;;;21.10;83.80;;;;;;5072243;28;20112;-53
2022/06/24 05:39:55;;;;;;;11.43;3.75;;;21.30;75.20;;;;;;5074887;28;20046;-54
2022/06/24 05:42:20;;;;;;;9.20;3.65;;;21.10;76.30;;;;;;5069922;28;20471;-54
2022/06/24 05:44:46;;;;;;;6.70;3.10;;;21.20;60.40;;;;;;5074155;28;20151;-52
2022/06/24 05:47:12;;;;;;;7.30;2.88;;;23.20;65.60;;;;;;5073692;28;20048;-52
2022/06/24 05:49:37;;;;;;;6.13;2.90;;;21.40;55.30;;;;;;5073014;28;20120;-53
2022/06/24 05:52:03;;;;;;;9.18;3.38;;;21.40;54.30;;;;;;5073060;28;20126;-54
2022/06/24 05:57:16;;;;;;;5.32;2.78;;;21.50;44.10;;;;;;5070873;28;20090;-53
2022/06/24 05:59:44;;;;;;;7.03;2.80;;;21.80;43.60;;;;;;5073310;28;20492;-51
2022/06/24 06:02:09;;;;;;;8.60;2.58;;;21.40;49.90;;;;;;5071980;28;20039;-53
2022/06/24 06:04:35;;;;;;;7.82;3.05;;;23.30;59.90;;;;;;5072102;28;20430;-52
2022/06/24 06:07:01;;;;;;;6.85;3.35;;;20.90;57.30;;;;;;5071703;28;20036;-53
2022/06/24 06:09:26;;;;;;;10.32;3.50;;;20.80;68.40;;;;;;5072390;28;20550;-53
2022/06/24 06:11:52;;;;;;;8.98;3.47;;;20.80;69.20;;;;;;5071599;28;20397;-51
2022/06/24 06:14:20;;;;;;;8.00;3.47;;;20.60;83.20;;;;;;5071001;28;20032;-52
2022/06/24 06:16:47;;;;;;;14.95;4.95;;;20.60;93.30;;;;;;5072544;28;20463;-48
2022/06/24 06:19:13;;;;;;;15.35;3.75;;;20.60;99.90;;;;;;5071488;28;20300;-46
2022/06/24 06:21:40;;;;;;;8.57;3.63;;;20.20;99.90;;;;;;5073506;28;20377;-46
2022/06/24 06:24:06;;;;;;;10.18;4.53;;;20.00;99.90;;;;;;5071622;28;20591;-49
2022/06/24 06:26:31;;;;;;;13.45;4.88;;;20.10;99.90;;;;;;5071028;28;20070;-52
2022/06/24 06:28:57;;;;;;;12.10;4.80;;;20.00;99.90;;;;;;5069633;28;20052;-51
2022/06/24 06:31:23;;;;;;;9.82;3.90;;;19.80;99.90;;;;;;5072701;28;20493;-49
2022/06/24 06:33:49;;;;;;;10.77;4.28;;;19.80;99.90;;;;;;5073335;28;20489;-51
2022/06/24 06:36:16;;;;;;;7.72;3.88;;;19.50;99.90;;;;;;5072226;28;20044;-51
2022/06/24 06:38:42;;;;;;;10.85;4.18;;;19.60;99.90;;;;;;5072332;28;20056;-49
2022/06/24 06:41:08;;;;;;;9.60;4.13;;;19.70;99.90;;;;;;5072036;28;20044;-48
2022/06/24 06:43:38;;;;;;;8.95;4.07;;;17.30;99.90;;;;;;5072777;28;20044;-50
2022/06/24 06:46:07;;;;;;;7.75;4.00;;;19.30;99.90;;;;;;5072374;28;20761;-46
2022/06/24 06:48:32;;;;;;;9.60;4.13;;;19.40;99.90;;;;;;5073100;28;20496;-49
2022/06/24 06:50:59;;;;;;;7.03;4.22;;;19.50;99.90;;;;;;5072797;28;20039;-49
2022/06/24 06:53:26;;;;;;;9.00;5.05;;;19.60;99.90;;;;;;5072567;28;20036;-46
2022/06/24 06:55:52;;;;;;;10.27;5.60;;;19.60;99.90;;;;;;5071925;28;20032;-46
2022/06/24 06:58:19;;;;;;;8.80;5.15;;;19.60;99.90;;;;;;5074564;28;20044;-47
2022/06/24 07:00:45;;;;;;;8.82;5.07;;;20.30;99.90;;;;;;5071696;28;20040;-47
2022/06/24 07:03:11;;;;;;;9.05;4.40;;;19.60;99.90;;;;;;5072042;28;20048;-50
2022/06/24 07:05:39;;;;;;;10.70;5.40;;;20.50;99.90;;;;;;5071940;28;20439;-48
2022/06/24 07:08:05;;;;;;;11.95;5.32;;;20.00;99.90;;;;;;5072159;28;20101;-49
2022/06/24 07:10:31;;;;;;;12.43;5.40;;;19.60;99.90;;;;;;5075407;28;20042;-50
2022/06/24 07:12:57;;;;;;;9.65;4.57;;;19.70;99.90;;;;;;5076083;28;20040;-51
2022/06/24 07:15:22;;;;;;;9.52;5.70;;;19.60;99.90;;;;;;5078398;28;20050;-50
2022/06/24 07:17:48;;;;;;;9.38;5.35;;;19.50;99.90;;;;;;5078368;28;20060;-49
2022/06/24 07:20:14;;;;;;;10.75;5.55;;;19.50;99.90;;;;;;5076266;28;20051;-50
2022/06/24 07:22:40;;;;;;;8.02;4.88;;;19.50;99.90;;;;;;5076946;28;20036;-48
2022/06/24 07:25:07;;;;;;;9.10;5.70;;;19.60;99.90;;;;;;5076145;28;20056;-49
2022/06/24 07:27:35;;;;;;;10.95;5.18;;;19.50;99.90;;;;;;5077023;28;20446;-51
2022/06/24 07:30:05;;;;;;;8.15;5.35;;;19.60;99.90;;;;;;5076727;28;20457;-50
2022/06/24 07:32:30;;;;;;;12.07;5.90;;;19.50;99.90;;;;;;5076606;28;20051;-47
2022/06/24 07:34:58;;;;;;;9.70;5.18;;;19.50;99.90;;;;;;5075061;28;20207;-47
2022/06/24 07:37:24;;;;;;;9.38;5.60;;;21.80;99.90;;;;;;5075332;28;20503;-49
2022/06/24 07:39:50;;;;;;;12.80;5.80;;;19.40;99.90;;;;;;5076668;28;20040;-49
2022/06/24 07:42:15;;;;;;;9.93;4.93;;;21.30;99.90;;;;;;5073733;28;20043;-49
2022/06/24 07:44:43;;;;;;;9.18;5.20;;;19.50;99.90;;;;;;5075578;28;20424;-49
2022/06/24 07:47:10;;;;;;;9.55;5.13;;;19.50;99.90;;;;;;5074147;28;20044;-49
2022/06/24 07:49:36;;;;;;;9.45;5.38;;;19.60;99.90;;;;;;5074753;28;20419;-47
2022/06/24 07:52:02;;;;;;;8.73;5.13;;;19.50;99.90;;;;;;5075660;28;20044;-48
2022/06/24 07:54:27;;;;;;;10.45;5.43;;;19.50;99.90;;;;;;5075336;28;20312;-48
2022/06/24 07:56:59;;;;;;;10.43;6.00;;;19.50;99.90;;;;;;5076384;28;20040;-47
2022/06/24 07:59:25;;;;;;;;;;;19.60;99.90;;;;;;5074710;28;20036;-48
2022/06/24 08:01:52;;;;;;;11.50;6.03;;;19.40;99.90;;;;;;5074640;28;19920;-48
2022/06/24 08:04:19;;;;;;;14.07;5.45;;;20.10;99.90;;;;;;5075012;28;20063;-48
2022/06/24 08:06:46;;;;;;;8.75;5.93;;;19.90;99.90;;;;;;5076780;28;20039;-46
2022/06/24 08:09:13;;;;;;;9.00;5.72;;;21.20;99.90;;;;;;5076891;28;20044;-47
2022/06/24 08:11:41;;;;;;;10.90;6.72;;;19.60;99.90;;;;;;5076481;28;20039;-50
2022/06/24 08:14:07;;;;;;;9.25;5.63;;;19.60;99.90;;;;;;5076288;28;20044;-50
2022/06/24 08:16:32;;;;;;;10.75;5.18;;;19.70;99.90;;;;;;5076473;28;20047;-48
2022/06/24 08:18:58;;;;;;;10.57;5.32;;;19.80;99.90;;;;;;5076212;28;20039;-45
2022/06/24 08:21:24;;;;;;;12.32;5.38;;;19.80;99.90;;;;;;5076254;28;20138;-48
2022/06/24 08:23:50;;;;;;;8.77;6.05;;;21.60;99.90;;;;;;5074978;28;20392;-49
2022/06/24 08:26:18;;;;;;;10.60;5.10;;;19.50;99.90;;;;;;5074637;28;20065;-48
2022/06/24 08:28:44;;;;;;;8.23;4.70;;;20.90;99.90;;;;;;5074540;28;20032;-47
2022/06/24 08:31:11;;;;;;;10.43;5.50;;;20.50;99.90;;;;;;5074776;28;20442;-49
2022/06/24 08:33:37;;;;;;;11.40;4.97;;;19.80;99.90;;;;;;5073962;28;20032;-48
2022/06/24 08:36:03;;;;;;;10.18;6.20;;;19.90;99.90;;;;;;5073877;28;20065;-50
2022/06/24 08:38:29;;;;;;;10.25;5.63;;;19.80;99.90;;;;;;5074681;28;20130;-49
2022/06/24 08:40:59;;;;;;;7.40;4.90;;;19.70;99.90;;;;;;5074479;28;20044;-51
2022/06/24 08:43:29;;;;;;;11.60;5.90;;;20.10;99.90;;;;;;5075125;28;20044;-46
2022/06/24 08:45:54;;;;;;;9.68;5.72;;;21.20;99.90;;;;;;5075921;28;20072;-49
2022/06/24 08:48:21;;;;;;;9.07;5.22;;;21.00;99.90;;;;;;5073496;28;20518;-49
2022/06/24 08:50:47;;;;;;;11.38;5.18;;;19.60;99.90;;;;;;5074845;28;20496;-46
2022/06/24 08:53:17;;;;;;;11.00;5.28;;;21.20;99.90;;;;;;5073768;28;20282;-49
2022/06/24 08:55:44;;;;;;;12.80;5.20;;;19.80;99.90;;;;;;5074207;28;20071;-45
2022/06/24 08:58:11;;;;;;;12.07;4.10;;;19.70;99.90;;;;;;5073591;28;20036;-48
2022/06/24 09:00:38;;;;;;;7.85;3.50;;;20.20;99.90;;;;;;5075207;28;20083;-50
2022/06/24 09:03:04;;;;;;;11.57;4.60;;;19.80;99.90;;;;;;5073213;28;20079;-47
2022/06/24 09:05:32;;;;;;;9.30;4.97;;;19.90;99.90;;;;;;5073673;28;20527;-50
2022/06/24 09:08:09;;;;;;;11.93;5.30;;;19.70;99.90;;;;;;5075081;28;20040;-48
2022/06/24 09:10:37;;;;;;;8.27;3.65;;;19.80;99.90;;;;;;5070921;28;20453;-49
2022/06/24 09:13:04;;;;;;;8.13;4.60;;;19.70;99.90;;;;;;5072756;28;20044;-49
2022/06/24 09:15:30;;;;;;;8.02;4.90;;;19.80;99.90;;;;;;5075035;28;20417;-51
2022/06/24 09:17:59;;;;;;;12.02;5.55;;;19.70;99.90;;;;;;5075350;28;20047;-48
2022/06/24 09:20:30;;;;;;;13.82;5.63;;;21.10;99.90;;;;;;5075025;28;20094;-51
2022/06/24 09:23:09;;;;;;;9.20;5.07;;;19.60;99.90;;;;;;5074613;28;20050;-47
2022/06/24 09:25:48;;;;;;;11.35;5.22;;;19.90;99.90;;;;;;5074535;28;20435;-49
2022/06/24 09:28:39;;;;;;;8.68;5.55;;;21.50;99.90;;;;;;5073501;28;20074;-48
2022/06/24 09:31:09;;;;;;;10.45;5.63;;;19.50;99.90;;;;;;5070979;28;20055;-49
2022/06/24 09:33:39;;;;;;;13.48;6.15;;;21.20;99.90;;;;;;5073412;28;20032;-48
2022/06/24 09:36:07;;;;;;;10.07;6.25;;;19.40;99.90;;;;;;5072983;28;20516;-50
2022/06/24 09:38:56;;;;;;;14.60;6.80;;;19.50;99.90;;;;;;5072876;28;21206;-46
2022/06/24 09:41:23;;;;;;;14.23;6.70;;;19.60;99.90;;;;;;5073312;28;20036;-49
2022/06/24 09:43:53;;;;;;;10.05;6.18;;;19.50;99.90;;;;;;5071971;28;20044;-45
2022/06/24 09:46:21;;;;;;;11.98;6.22;;;19.40;99.90;;;;;;5073274;28;20071;-49
2022/06/24 09:48:47;;;;;;;11.82;6.15;;;19.30;99.90;;;;;;5072180;28;20055;-48
2022/06/24 09:51:15;;;;;;;12.25;5.93;;;19.50;99.90;;;;;;5071772;28;20067;-49
2022/06/24 09:53:41;;;;;;;13.23;7.47;;;19.40;99.90;;;;;;5072106;28;20048;-49
2022/06/24 09:56:09;;;;;;;11.10;6.95;;;19.50;99.90;;;;;;5071993;28;20100;-47
2022/06/24 09:58:36;;;;;;;12.80;7.80;;;19.10;99.90;;;;;;5070969;28;20475;-51
2022/06/24 10:01:05;;;;;;;10.23;7.65;;;19.20;99.90;;;;;;5072232;28;20040;-51
2022/06/24 10:03:30;;;;;;;13.18;9.00;;;18.90;99.90;;;;;;5073535;28;20089;-48
2022/06/24 10:06:10;;;;;;;11.20;8.20;;;19.70;99.90;;;;;;5071927;28;20040;-51
2022/06/24 10:08:37;;;;;;;15.50;9.57;;;19.80;99.90;;;;;;5073122;28;20542;-51
2022/06/24 10:11:09;;;;;;;11.70;7.50;;;18.60;99.90;;;;;;5072259;28;20292;-49
2022/06/24 10:13:35;;;;;;;8.75;6.63;;;18.80;99.90;;;;;;5070057;28;20048;-62
2022/06/24 10:16:04;;;;;;;14.80;6.43;;;19.70;99.90;;;;;;5073674;28;20047;-51
2022/06/24 10:18:39;;;;;;;8.65;5.82;;;20.50;99.90;;;;;;5073136;28;20497;-51
2022/06/24 10:21:08;;;;;;;10.45;6.30;;;18.70;99.90;;;;;;5071668;28;20548;-45
2022/06/24 10:23:39;;;;;;;8.55;5.85;;;18.70;99.90;;;;;;5073004;28;20496;-50
2022/06/24 10:26:11;;;;;;;10.43;5.70;;;18.60;99.90;;;;;;5071203;28;20408;-48
2022/06/24 10:28:59;;;;;;;8.30;5.10;;;17.10;99.90;;;;;;5072082;28;20036;-49
2022/06/24 10:31:49;;;;;;;6.68;4.50;;;18.50;99.90;;;;;;5072573;28;20044;-49
2022/06/24 10:34:30;;;;;;;6.18;3.42;;;18.40;99.90;;;;;;5071515;28;20047;-49
2022/06/24 10:37:20;;;;;;;5.57;3.17;;;18.20;99.90;;;;;;5071394;28;20047;-51
2022/06/24 10:39:48;;;;;;;6.60;2.97;;;18.20;99.90;;;;;;5024051;28;20064;-46
2022/06/24 10:42:20;;;;;;;5.43;2.80;;;18.10;99.90;;;;;;5025348;28;20057;-49
2022/06/24 10:44:58;;;;;;;;;;;18.00;99.90;;;;;;5028005;28;20064;-56
2022/06/24 10:47:30;;;;;;;6.45;2.85;;;17.80;99.90;;;;;;5030529;28;20162;-48
2022/06/24 10:50:04;;;;;;;5.55;2.70;;;18.10;99.90;;;;;;5014724;28;20111;-50
2022/06/24 10:52:33;;;;;;;7.25;2.65;;;19.50;99.90;;;;;;5030533;28;20041;-45
2022/06/24 10:55:28;;;;;;;6.57;2.70;;;17.70;99.90;;;;;;5030543;28;20048;-46
2022/06/24 10:58:24;;;;;;;6.15;2.83;;;17.80;99.90;;;;;;5032275;28;20418;-43
2022/06/24 11:00:52;;;;;;;7.35;2.92;;;18.30;99.90;;;;;;4937036;28;20075;-47
2022/06/24 11:03:29;;;;;;;6.90;2.95;;;17.70;99.90;;;;;;4921380;28;20043;-46
2022/06/24 11:05:55;;;;;;;6.40;3.08;;;19.10;99.90;;;;;;4938053;28;20142;-43
2022/06/24 11:08:23;;;;;;;5.90;3.47;;;17.70;99.90;;;;;;4937131;28;24461;-45
2022/06/24 11:10:50;;;;;;;7.20;3.53;;;17.50;99.90;;;;;;4934912;28;20066;-47
2022/06/24 11:13:17;;;;;;;8.43;3.30;;;17.80;99.90;;;;;;4935965;28;20586;-42
2022/06/24 11:15:47;;;;;;;6.63;3.63;;;17.90;99.90;;;;;;4937106;28;20671;-44
2022/06/24 11:18:25;;;;;;;7.43;3.95;;;17.80;99.90;;;;;;4963573;28;20050;-46
2022/06/24 11:20:59;;;;;;;10.95;3.75;;;18.00;99.90;;;;;;4961628;28;20046;-45
2022/06/24 11:23:37;;;;;;;7.20;3.75;;;18.00;99.90;;;;;;4961990;28;20264;-46
2022/06/24 11:26:06;;;;;;;7.15;3.63;;;17.90;99.90;;;;;;4959750;28;20587;-46
2022/06/24 11:28:36;;;;;;;7.82;4.70;;;17.90;99.90;;;;;;4962638;28;20039;-43
2022/06/24 11:31:16;;;;;;;7.82;4.47;;;18.10;99.90;;;;;;4961977;28;20077;-45
2022/06/24 11:33:43;;;;;;;10.57;5.10;;;17.80;99.90;;;;;;4961543;28;20602;-42
2022/06/24 11:36:09;;;;;;;7.97;4.82;;;18.00;99.90;;;;;;4962624;28;20618;-44
2022/06/24 11:38:49;;;;;;;5.68;4.18;;;18.30;99.90;;;;;;5075748;28;20059;-44
2022/06/24 11:41:28;;;;;;;6.18;4.25;;;18.00;99.90;;;;;;5074704;28;20500;-46
2022/06/24 11:43:54;;;;;;;7.80;4.80;;;18.00;99.90;;;;;;5076674;28;20044;-46
2022/06/24 11:46:20;;;;;;;7.22;5.40;;;18.00;99.90;;;;;;5074841;28;20044;-46
2022/06/24 11:48:46;;;;;;;8.90;4.97;;;18.20;99.90;;;;;;5074813;28;20045;-47
2022/06/24 11:51:20;;;;;;;8.30;5.63;;;18.50;99.90;;;;;;5073524;28;20397;-46
2022/06/24 11:53:57;;;;;;;11.65;5.50;;;18.40;99.90;;;;;;5074697;28;20090;-47
2022/06/24 11:56:27;;;;;;;10.27;6.18;;;18.00;99.90;;;;;;5073159;28;20141;-44
2022/06/24 11:58:54;;;;;;;6.47;5.00;;;18.20;99.90;;;;;;5073534;28;20529;-45
2022/06/24 12:01:19;;;;;;;8.30;5.75;;;19.90;99.90;;;;;;5076455;28;20573;-43
2022/06/24 12:03:50;;;;;;;7.30;5.65;;;18.30;99.90;;;;;;5073599;28;20052;-44
2022/06/24 12:06:19;;;;;;;9.73;5.32;;;18.30;99.90;;;;;;5075183;28;20036;-46
2022/06/24 12:08:45;;;;;;;10.60;6.20;;;19.30;99.90;;;;;;5073699;28;20059;-47
2022/06/24 12:11:19;;;;;;;10.70;6.72;;;18.50;99.90;;;;;;5074539;28;20047;-47
2022/06/24 12:14:00;;;;;;;7.43;6.20;;;20.10;99.90;;;;;;5074726;28;20028;-46
2022/06/24 12:16:27;;;;;;;8.77;7.50;;;18.70;99.90;;;;;;5075904;28;20036;-48
2022/06/24 12:18:53;;;;;;;9.27;6.30;;;18.90;99.90;;;;;;5076945;28;20047;-45
2022/06/24 12:21:30;;;;;;;8.32;6.18;;;19.00;99.90;;;;;;5074462;28;20062;-46
2022/06/24 12:23:55;;;;;;;10.00;7.38;;;19.20;99.90;;;;;;5076142;28;20310;-48
2022/06/24 12:26:24;;;;;;;11.38;7.40;;;20.70;99.90;;;;;;5074696;28;20051;-44
2022/06/24 12:29:04;;;;;;;10.55;7.50;;;19.30;99.90;;;;;;5074189;28;20097;-47
2022/06/24 12:31:31;;;;;;;10.25;8.55;;;19.40;99.90;;;;;;5074750;28;20036;-47
2022/06/24 12:33:57;;;;;;;9.48;6.75;;;19.40;99.90;;;;;;5072678;28;20581;-45
2022/06/24 12:36:35;;;;;;;13.82;8.10;;;19.70;99.90;;;;;;5073528;28;20040;-42
2022/06/24 12:39:07;;;;;;;11.68;7.90;;;19.60;99.90;;;;;;5073644;28;20511;-44
2022/06/24 12:41:45;;;;;;;10.80;7.93;;;20.60;99.90;;;;;;5073633;28;20047;-46
2022/06/24 12:44:11;;;;;;;8.65;6.80;;;19.80;99.90;;;;;;5073820;28;20040;-47
2022/06/24 12:50:34;;;;;;;10.93;7.23;;;20.00;99.90;;;;;;4976070;28;2813161;-47
2022/06/24 12:52:44;;;;;;;10.40;7.63;;;20.30;99.90;;;;;;5075191;28;20047;-45
2022/06/24 12:55:12;;;;;;;14.15;9.35;;;21.10;99.90;;;;;;5074411;28;20044;-47
2022/06/24 12:57:38;;;;;;;12.88;9.75;;;21.00;99.90;;;;;;5071075;28;20039;-43
2022/06/24 13:00:12;;;;;;;12.20;10.15;;;21.20;99.90;;;;;;5075063;28;20101;-47
2022/06/24 13:02:43;;;;;;;13.00;10.07;;;19.80;99.90;;;;;;5074681;28;20572;-45